Time;durP1;ratioP1;P1;durP2;ratioP2;P2;SDS_P1;SDS_P2;PMS_P1;PMS_P2;Temp;Humidity;BMP_temperature;BMP_pressure;BME280_temperature;BME280_humidity;BME280_pressure;Samples;Min_cycle;Max_cycle;Signal;HPM_P1;HPM_P2
2022/01/30 00:01:54;;;;;;;16.98;2.88;;;;;;;;;;4950122;28;20693;-81
2022/01/30 00:04:20;;;;;;;41.28;5.78;;;;;;;;;;4940733;28;20767;-80
2022/01/30 00:06:46;;;;;;;39.63;3.70;;;;;;;;;;4945665;28;20223;-80
2022/01/30 00:09:19;;;;;;;37.65;5.22;;;;;;;;;;4968209;28;20027;-81
2022/01/30 00:11:50;;;;;;;22.13;4.50;;;;;;;;;;4946692;28;20039;-81
2022/01/30 00:14:18;;;;;;;20.48;4.53;;;;;;;;;;4966683;28;20401;-81
2022/01/30 00:16:45;;;;;;;38.00;3.40;;;;;;;;;;4976687;28;20026;-81
2022/01/30 00:19:49;;;;;;;12.60;3.10;;;;;;;;;;4950649;28;20027;-80
2022/01/30 00:22:23;;;;;;;26.55;3.53;;;;;;;;;;4960597;28;20098;-80
2022/01/30 00:24:56;;;;;;;11.23;1.75;;;;;;;;;;4946069;28;20038;-80
2022/01/30 00:27:32;;;;;;;7.70;1.50;;;;;;;;;;4952161;28;20050;-80
2022/01/30 00:29:58;;;;;;;4.95;1.10;;;;;;;;;;4945234;28;20046;-81
2022/01/30 00:32:24;;;;;;;15.38;2.42;;;;;;;;;;4954003;28;20030;-80
2022/01/30 00:34:50;;;;;;;10.10;1.17;;;;;;;;;;4959790;28;20039;-81
2022/01/30 00:37:17;;;;;;;15.90;2.03;;;;;;;;;;4949844;28;20030;-81
2022/01/30 00:39:43;;;;;;;12.20;1.85;;;;;;;;;;4944228;28;20035;-81
2022/01/30 00:42:10;;;;;;;21.58;4.97;;;;;;;;;;4948230;28;20149;-81
2022/01/30 00:44:36;;;;;;;16.52;3.28;;;;;;;;;;4947499;28;20041;-80
2022/01/30 00:47:03;;;;;;;9.18;2.25;;;;;;;;;;4945315;28;20066;-81
2022/01/30 00:49:29;;;;;;;10.23;2.33;;;;;;;;;;4954351;28;20470;-81
2022/01/30 00:51:55;;;;;;;11.20;1.35;;;;;;;;;;4948837;28;20045;-85
2022/01/30 00:54:22;;;;;;;23.40;3.10;;;;;;;;;;4946297;28;20042;-85
2022/01/30 00:56:48;;;;;;;12.00;2.35;;;;;;;;;;4948449;28;20031;-84
2022/01/30 00:59:14;;;;;;;23.48;3.50;;;;;;;;;;4950101;28;20033;-84
2022/01/30 01:01:40;;;;;;;15.25;2.95;;;;;;;;;;4946799;28;20573;-84
2022/01/30 01:04:06;;;;;;;22.88;3.78;;;;;;;;;;4966597;28;20086;-84
2022/01/30 01:06:32;;;;;;;33.40;4.90;;;;;;;;;;4981657;28;20537;-84
2022/01/30 01:09:01;;;;;;;12.05;2.65;;;;;;;;;;4944956;28;20069;-84
2022/01/30 01:11:56;;;;;;;36.75;5.40;;;;;;;;;;4943784;28;20624;-85
2022/01/30 01:25:17;;;;;;;22.40;3.25;;;;;;;;;;4970674;28;20139;-85
2022/01/30 01:27:43;;;;;;;25.48;3.88;;;;;;;;;;4961140;28;20528;-85
2022/01/30 01:30:10;;;;;;;38.83;5.40;;;;;;;;;;4963855;28;20039;-85
2022/01/30 01:32:36;;;;;;;40.92;7.05;;;;;;;;;;4963302;28;20027;-86
2022/01/30 01:35:02;;;;;;;60.80;7.55;;;;;;;;;;4948392;28;20034;-83
2022/01/30 01:37:28;;;;;;;24.55;3.70;;;;;;;;;;4946083;28;20492;-84
2022/01/30 01:39:54;;;;;;;24.45;4.68;;;;;;;;;;4952928;28;20041;-84
2022/01/30 01:42:21;;;;;;;19.83;3.10;;;;;;;;;;4973085;28;20418;-83
2022/01/30 01:44:51;;;;;;;26.35;3.03;;;;;;;;;;4964920;28;20038;-84
2022/01/30 01:47:20;;;;;;;36.08;5.55;;;;;;;;;;4973713;28;20099;-83
2022/01/30 01:49:49;;;;;;;16.38;3.90;;;;;;;;;;4958016;28;20050;-84
2022/01/30 01:52:19;;;;;;;26.90;4.72;;;;;;;;;;4954111;28;20031;-84
2022/01/30 01:54:46;;;;;;;39.53;3.55;;;;;;;;;;4953575;28;20035;-85
2022/01/30 01:57:13;;;;;;;22.50;4.05;;;;;;;;;;4974654;28;20406;-85
2022/01/30 01:59:39;;;;;;;32.88;4.38;;;;;;;;;;4985937;28;20041;-84
2022/01/30 02:02:13;;;;;;;22.33;3.45;;;;;;;;;;4954034;28;20113;-85
2022/01/30 02:04:41;;;;;;;17.40;2.33;;;;;;;;;;4975228;28;20058;-84
2022/01/30 02:07:35;;;;;;;22.50;4.25;;;;;;;;;;4971308;28;20044;-85
2022/01/30 02:09:55;;;;;;;36.55;4.75;;;;;;;;;;4973475;28;20550;-86
2022/01/30 02:12:30;;;;;;;37.97;5.38;;;;;;;;;;4951850;28;20117;-85
2022/01/30 02:26:01;;;;;;;21.02;4.55;;;;;;;;;;4972117;28;20142;-85
2022/01/30 02:28:29;;;;;;;27.75;3.63;;;;;;;;;;4957324;28;20031;-86
2022/01/30 02:31:04;;;;;;;15.75;2.85;;;;;;;;;;4953174;28;20247;-84
2022/01/30 02:33:30;;;;;;;36.63;4.30;;;;;;;;;;4952494;28;20038;-83
2022/01/30 02:35:56;;;;;;;23.83;4.50;;;;;;;;;;4954690;28;20117;-84
2022/01/30 02:38:22;;;;;;;35.90;4.97;;;;;;;;;;4952937;28;20298;-84
2022/01/30 02:40:50;;;;;;;19.58;3.50;;;;;;;;;;4953452;28;20034;-85
2022/01/30 02:43:21;;;;;;;30.58;3.50;;;;;;;;;;4954085;28;20484;-85
2022/01/30 02:46:00;;;;;;;30.52;4.32;;;;;;;;;;4955524;28;20090;-84
2022/01/30 02:48:44;;;;;;;27.77;3.80;;;;;;;;;;4949722;28;20123;-84
2022/01/30 02:51:18;;;;;;;52.22;7.40;;;;;;;;;;4960748;28;20533;-85
2022/01/30 02:53:54;;;;;;;32.75;4.63;;;;;;;;;;4982086;28;20072;-85
2022/01/30 02:56:20;;;;;;;43.30;6.75;;;;;;;;;;4971050;28;20077;-84
2022/01/30 02:58:46;;;;;;;45.65;4.95;;;;;;;;;;5003456;28;20026;-85
2022/01/30 03:01:12;;;;;;;47.72;7.10;;;;;;;;;;4969015;28;20018;-85
2022/01/30 03:03:38;;;;;;;22.85;4.22;;;;;;;;;;5001881;28;20041;-85
2022/01/30 03:06:04;;;;;;;44.20;6.68;;;;;;;;;;4970189;28;20037;-85
2022/01/30 03:08:31;;;;;;;51.85;5.57;;;;;;;;;;4961493;28;20041;-84
2022/01/30 03:10:56;;;;;;;37.97;5.68;;;;;;;;;;4970964;28;20387;-85
2022/01/30 03:13:23;;;;;;;35.90;5.05;;;;;;;;;;4969409;28;20030;-85
2022/01/30 03:15:49;;;;;;;27.67;4.53;;;;;;;;;;5005123;28;20026;-86
2022/01/30 03:18:15;;;;;;;48.42;7.45;;;;;;;;;;4969622;28;20133;-84
2022/01/30 03:20:42;;;;;;;46.92;7.22;;;;;;;;;;4970157;28;20104;-85
2022/01/30 03:23:08;;;;;;;34.30;5.47;;;;;;;;;;4983466;28;21389;-86
2022/01/30 03:25:34;;;;;;;51.97;7.13;;;;;;;;;;5002175;28;20673;-86
2022/01/30 03:28:01;;;;;;;44.38;6.50;;;;;;;;;;4968551;28;20121;-86
2022/01/30 03:30:30;;;;;;;45.45;6.45;;;;;;;;;;4971801;28;20070;-86
2022/01/30 03:32:56;;;;;;;22.55;4.88;;;;;;;;;;4970509;28;20045;-86
2022/01/30 03:35:23;;;;;;;38.45;5.90;;;;;;;;;;4967759;28;20038;-86
2022/01/30 03:37:49;;;;;;;46.95;6.72;;;;;;;;;;4976421;28;20022;-86
2022/01/30 03:40:15;;;;;;;47.50;6.53;;;;;;;;;;5000038;28;20466;-85
2022/01/30 03:42:41;;;;;;;41.35;7.22;;;;;;;;;;5002644;28;20031;-84
2022/01/30 03:45:07;;;;;;;62.70;6.63;;;;;;;;;;4999926;28;20049;-83
2022/01/30 03:47:33;;;;;;;46.95;6.60;;;;;;;;;;5001409;28;20121;-84
2022/01/30 03:49:59;;;;;;;48.78;7.25;;;;;;;;;;4989316;28;20133;-84
2022/01/30 03:52:25;;;;;;;48.38;6.93;;;;;;;;;;4952887;28;20467;-84
2022/01/30 03:54:51;;;;;;;52.45;8.18;;;;;;;;;;4965307;28;20145;-84
2022/01/30 03:57:17;;;;;;;31.58;4.38;;;;;;;;;;4950110;28;20035;-84
2022/01/30 03:59:43;;;;;;;37.33;6.82;;;;;;;;;;4970077;28;20553;-84
2022/01/30 04:02:09;;;;;;;19.65;3.38;;;;;;;;;;4942022;28;20036;-84
2022/01/30 04:04:35;;;;;;;53.67;7.40;;;;;;;;;;4951965;28;20038;-84
2022/01/30 04:07:02;;;;;;;28.13;6.60;;;;;;;;;;4949514;28;20069;-84
2022/01/30 04:09:28;;;;;;;45.80;6.78;;;;;;;;;;4981855;28;20026;-83
2022/01/30 04:11:55;;;;;;;59.30;8.35;;;;;;;;;;4947795;28;20422;-84
2022/01/30 04:14:21;;;;;;;33.22;6.88;;;;;;;;;;4983274;28;20034;-83
2022/01/30 04:16:47;;;;;;;45.33;7.38;;;;;;;;;;4947483;28;20070;-84
2022/01/30 04:19:14;;;;;;;59.35;8.13;;;;;;;;;;4948605;28;20665;-84
2022/01/30 04:21:40;;;;;;;59.35;7.82;;;;;;;;;;4978935;28;20471;-84
2022/01/30 04:24:06;;;;;;;35.15;3.47;;;;;;;;;;4949930;28;20082;-84
2022/01/30 04:26:32;;;;;;;27.20;5.97;;;;;;;;;;4952845;28;20110;-83
2022/01/30 04:28:59;;;;;;;45.70;6.90;;;;;;;;;;4948011;28;20052;-84
2022/01/30 04:31:25;;;;;;;51.97;10.15;;;;;;;;;;4978353;28;20019;-85
2022/01/30 04:33:51;;;;;;;40.20;6.68;;;;;;;;;;4946220;28;20030;-84
2022/01/30 04:36:24;;;;;;;31.83;4.35;;;;;;;;;;4965727;28;20029;-85
2022/01/30 05:05:34;;;;;;;51.60;6.28;;;;;;;;;;4963998;28;20133;-84
2022/01/30 05:07:54;;;;;;;40.15;7.68;;;;;;;;;;4969149;28;20087;-85
2022/01/30 05:10:20;;;;;;;36.33;6.03;;;;;;;;;;4948933;28;20065;-84
2022/01/30 05:12:55;;;;;;;43.72;6.15;;;;;;;;;;4948617;28;20033;-85
2022/01/30 05:15:22;;;;;;;47.38;7.50;;;;;;;;;;4963617;28;20049;-85
2022/01/30 05:17:48;;;;;;;45.30;7.53;;;;;;;;;;4950799;28;20109;-85
2022/01/30 05:20:15;;;;;;;54.80;8.55;;;;;;;;;;4966279;28;20104;-84
2022/01/30 05:22:41;;;;;;;45.40;7.97;;;;;;;;;;4948187;28;20050;-85
2022/01/30 05:25:08;;;;;;;45.97;7.32;;;;;;;;;;4963734;28;20039;-85
2022/01/30 05:27:34;;;;;;;61.00;7.88;;;;;;;;;;4962686;28;20038;-85
2022/01/30 05:30:00;;;;;;;46.85;5.18;;;;;;;;;;4968426;28;20113;-85
2022/01/30 05:32:26;;;;;;;69.13;8.27;;;;;;;;;;4964382;28;20086;-85
2022/01/30 05:34:52;;;;;;;35.28;5.85;;;;;;;;;;4962574;28;20483;-85
2022/01/30 05:37:19;;;;;;;54.80;7.43;;;;;;;;;;4965566;28;20026;-85
2022/01/30 05:39:46;;;;;;;24.48;4.88;;;;;;;;;;4963304;28;20027;-85
2022/01/30 05:42:13;;;;;;;51.38;7.80;;;;;;;;;;4966827;28;20522;-82
2022/01/30 05:45:11;;;;;;;50.42;8.00;;;;;;;;;;4962757;28;20050;-83
2022/01/30 05:47:39;;;;;;;54.45;6.65;;;;;;;;;;4963704;28;20035;-82
2022/01/30 05:50:05;;;;;;;39.20;5.68;;;;;;;;;;4976553;28;20054;-82
2022/01/30 05:52:32;;;;;;;54.30;6.53;;;;;;;;;;4951624;28;20042;-82
2022/01/30 05:54:57;;;;;;;28.17;4.97;;;;;;;;;;4949161;28;20030;-82
2022/01/30 05:57:23;;;;;;;62.67;7.97;;;;;;;;;;4962897;28;20454;-83
2022/01/30 05:59:49;;;;;;;37.15;6.75;;;;;;;;;;4946180;28;20032;-83
2022/01/30 06:02:15;;;;;;;54.08;6.53;;;;;;;;;;4965690;28;20418;-83
2022/01/30 06:04:42;;;;;;;52.85;7.38;;;;;;;;;;4950134;28;20066;-83
2022/01/30 06:07:10;;;;;;;51.53;7.50;;;;;;;;;;4945633;28;20023;-83
2022/01/30 06:09:36;;;;;;;42.42;5.65;;;;;;;;;;4982041;28;20406;-82
2022/01/30 06:12:02;;;;;;;40.08;6.63;;;;;;;;;;4943926;28;20091;-83
2022/01/30 06:14:28;;;;;;;43.20;6.93;;;;;;;;;;4981162;28;20102;-83
2022/01/30 06:16:54;;;;;;;44.47;7.25;;;;;;;;;;4964714;28;20050;-83
2022/01/30 06:19:22;;;;;;;63.33;8.32;;;;;;;;;;4963328;28;20027;-83
2022/01/30 06:21:48;;;;;;;51.83;8.85;;;;;;;;;;4947597;28;20037;-83
2022/01/30 06:24:14;;;;;;;50.28;8.25;;;;;;;;;;4947680;28;20055;-83
2022/01/30 06:26:41;;;;;;;38.70;6.82;;;;;;;;;;4958812;28;20054;-82
2022/01/30 06:29:07;;;;;;;88.97;8.25;;;;;;;;;;4950618;28;20125;-84
2022/01/30 06:31:33;;;;;;;51.25;7.00;;;;;;;;;;4983318;28;20406;-83
2022/01/30 06:33:59;;;;;;;65.47;7.75;;;;;;;;;;4949244;28;20045;-83
2022/01/30 06:36:25;;;;;;;56.50;8.35;;;;;;;;;;4955719;28;20046;-84
2022/01/30 06:38:52;;;;;;;58.83;7.60;;;;;;;;;;4944437;28;20112;-84
2022/01/30 06:41:19;;;;;;;64.30;8.48;;;;;;;;;;4949739;28;20486;-81
2022/01/30 06:43:45;;;;;;;76.50;7.72;;;;;;;;;;4972323;28;20054;-83
2022/01/30 06:46:11;;;;;;;76.63;9.60;;;;;;;;;;4952612;28;20042;-84
2022/01/30 06:48:38;;;;;;;52.17;7.47;;;;;;;;;;4983249;28;20049;-83
2022/01/30 06:51:05;;;;;;;67.75;8.45;;;;;;;;;;4982466;28;20126;-84
2022/01/30 06:53:31;;;;;;;55.88;7.65;;;;;;;;;;4952675;28;20034;-83
2022/01/30 06:55:57;;;;;;;57.45;8.43;;;;;;;;;;4952117;28;20031;-84
2022/01/30 06:58:23;;;;;;;49.00;6.78;;;;;;;;;;4952761;28;20042;-84
2022/01/30 07:00:50;;;;;;;47.42;7.70;;;;;;;;;;4981277;28;20031;-85
2022/01/30 07:03:16;;;;;;;60.53;8.02;;;;;;;;;;4968956;28;20027;-84
2022/01/30 07:05:42;;;;;;;37.28;5.45;;;;;;;;;;4949024;28;20506;-84
2022/01/30 07:08:08;;;;;;;55.92;8.68;;;;;;;;;;4948949;28;20050;-84
2022/01/30 07:10:34;;;;;;;49.67;7.63;;;;;;;;;;4969000;28;20038;-84
2022/01/30 07:13:00;;;;;;;62.05;8.40;;;;;;;;;;4953651;28;20030;-83
2022/01/30 07:15:26;;;;;;;59.40;8.65;;;;;;;;;;4953146;28;20041;-84
2022/01/30 07:17:52;;;;;;;63.28;8.48;;;;;;;;;;4978410;28;20110;-84
2022/01/30 07:20:19;;;;;;;52.05;7.63;;;;;;;;;;4982932;28;20121;-84
2022/01/30 07:22:45;;;;;;;70.00;7.75;;;;;;;;;;4945924;28;20352;-84
2022/01/30 07:25:11;;;;;;;34.10;6.55;;;;;;;;;;4967951;28;20557;-84
2022/01/30 07:27:38;;;;;;;18.65;4.97;;;;;;;;;;4945465;28;20038;-84
2022/01/30 07:30:04;;;;;;;42.92;6.93;;;;;;;;;;4963780;28;20038;-84
2022/01/30 07:32:30;;;;;;;16.85;5.30;;;;;;;;;;4964143;28;20041;-83
2022/01/30 07:34:56;;;;;;;36.45;5.60;;;;;;;;;;4941757;28;20078;-84
2022/01/30 07:37:23;;;;;;;43.63;5.88;;;;;;;;;;4967387;28;20031;-83
2022/01/30 07:39:49;;;;;;;45.80;7.55;;;;;;;;;;4947093;28;20030;-84
2022/01/30 07:42:15;;;;;;;51.25;8.32;;;;;;;;;;4950509;28;20086;-84
2022/01/30 07:44:49;;;;;;;41.05;5.47;;;;;;;;;;4951924;28;20122;-84
2022/01/30 07:47:15;;;;;;;46.38;6.85;;;;;;;;;;4953594;28;20039;-84
2022/01/30 07:49:54;;;;;;;52.33;6.60;;;;;;;;;;4948207;28;20494;-84
2022/01/30 07:52:20;;;;;;;36.20;5.28;;;;;;;;;;4963118;28;20038;-84
2022/01/30 07:54:47;;;;;;;41.88;6.10;;;;;;;;;;4952673;28;20045;-84
2022/01/30 07:57:14;;;;;;;37.03;5.40;;;;;;;;;;4950343;28;20033;-84
2022/01/30 07:59:40;;;;;;;30.25;5.97;;;;;;;;;;4950653;28;20431;-84
2022/01/30 08:02:06;;;;;;;37.00;5.90;;;;;;;;;;4949142;28;20038;-84
2022/01/30 08:04:32;;;;;;;38.35;7.53;;;;;;;;;;4970645;28;20038;-84
2022/01/30 08:06:59;;;;;;;58.42;9.55;;;;;;;;;;4949019;28;20471;-84
2022/01/30 08:09:25;;;;;;;58.13;7.35;;;;;;;;;;4967045;28;20653;-84
2022/01/30 08:11:51;;;;;;;59.03;8.85;;;;;;;;;;4967720;28;20459;-83
2022/01/30 08:14:17;;;;;;;51.03;7.38;;;;;;;;;;4953415;28;20581;-85
2022/01/30 08:16:43;;;;;;;30.52;5.07;;;;;;;;;;4950947;28;20034;-83
2022/01/30 08:19:09;;;;;;;55.17;8.23;;;;;;;;;;4949591;28;20038;-83
2022/01/30 08:21:36;;;;;;;59.47;8.80;;;;;;;;;;4968682;28;20035;-85
2022/01/30 08:24:02;;;;;;;46.17;7.63;;;;;;;;;;4951156;28;20138;-84
2022/01/30 08:26:28;;;;;;;46.33;7.85;;;;;;;;;;4969361;28;20038;-85
2022/01/30 08:28:54;;;;;;;72.45;8.77;;;;;;;;;;4949301;28;20390;-85
2022/01/30 08:31:20;;;;;;;86.05;9.05;;;;;;;;;;4947734;28;20444;-83
2022/01/30 08:33:46;;;;;;;55.90;8.38;;;;;;;;;;4967511;28;20497;-84
2022/01/30 08:36:12;;;;;;;55.70;8.02;;;;;;;;;;4950281;28;20494;-84
2022/01/30 08:38:38;;;;;;;51.45;7.13;;;;;;;;;;4948158;28;20092;-84
2022/01/30 08:41:04;;;;;;;35.00;6.68;;;;;;;;;;4953712;28;20530;-84
2022/01/30 08:43:31;;;;;;;49.63;7.03;;;;;;;;;;4948937;28;20122;-84
2022/01/30 08:45:59;;;;;;;44.03;6.75;;;;;;;;;;4949538;28;20697;-85
2022/01/30 08:48:25;;;;;;;54.92;10.57;;;;;;;;;;4948296;28;20041;-84
2022/01/30 08:50:51;;;;;;;50.80;8.00;;;;;;;;;;4957308;28;20055;-85
2022/01/30 08:53:17;;;;;;;47.25;7.57;;;;;;;;;;4962400;28;20035;-85
2022/01/30 08:55:44;;;;;;;41.40;6.20;;;;;;;;;;4964386;28;20047;-86
2022/01/30 08:58:10;;;;;;;40.33;6.38;;;;;;;;;;4967626;28;20451;-85
2022/01/30 09:00:37;;;;;;;57.60;7.47;;;;;;;;;;4964586;28;20395;-86
2022/01/30 09:03:04;;;;;;;48.92;6.80;;;;;;;;;;4961297;28;20045;-85
2022/01/30 09:05:31;;;;;;;50.17;7.00;;;;;;;;;;4966474;28;20029;-85
2022/01/30 09:07:58;;;;;;;49.00;7.22;;;;;;;;;;4954963;28;20086;-85
2022/01/30 09:10:24;;;;;;;44.65;6.50;;;;;;;;;;4962824;28;20039;-85
2022/01/30 09:12:50;;;;;;;59.05;7.93;;;;;;;;;;4977475;28;20097;-85
2022/01/30 09:15:17;;;;;;;34.30;5.93;;;;;;;;;;4962941;28;20607;-85
2022/01/30 09:17:43;;;;;;;54.40;6.97;;;;;;;;;;4946425;28;20026;-85
2022/01/30 09:20:10;;;;;;;32.20;7.50;;;;;;;;;;4962626;28;20424;-84
2022/01/30 09:22:36;;;;;;;32.17;6.03;;;;;;;;;;4963058;28;20080;-85
2022/01/30 09:25:03;;;;;;;40.60;7.18;;;;;;;;;;4980739;28;20049;-86
2022/01/30 09:27:29;;;;;;;53.72;7.20;;;;;;;;;;4961474;28;20035;-86
2022/01/30 09:29:55;;;;;;;63.88;7.65;;;;;;;;;;4964321;28;20049;-81
2022/01/30 09:32:21;;;;;;;58.30;7.60;;;;;;;;;;4945794;28;20035;-82
2022/01/30 09:34:47;;;;;;;45.90;7.30;;;;;;;;;;4957791;28;20045;-82
2022/01/30 09:37:13;;;;;;;46.28;6.13;;;;;;;;;;4960572;28;20487;-81
2022/01/30 09:39:39;;;;;;;32.95;6.22;;;;;;;;;;4963179;28;20038;-81
2022/01/30 09:42:06;;;;;;;45.33;6.90;;;;;;;;;;4966149;28;20072;-81
2022/01/30 09:44:42;;;;;;;49.38;7.47;;;;;;;;;;4958377;28;20504;-82
2022/01/30 09:47:12;;;;;;;36.53;6.28;;;;;;;;;;4944800;28;20544;-81
2022/01/30 09:49:39;;;;;;;33.28;4.95;;;;;;;;;;4961869;28;20031;-82
2022/01/30 09:52:06;;;;;;;34.85;6.57;;;;;;;;;;4956198;28;20039;-82
2022/01/30 09:54:32;;;;;;;28.35;5.20;;;;;;;;;;4946393;28;20182;-81
2022/01/30 09:56:58;;;;;;;32.40;4.90;;;;;;;;;;4946402;28;20027;-81
2022/01/30 09:59:24;;;;;;;36.75;6.03;;;;;;;;;;4962349;28;20030;-81
2022/01/30 10:01:50;;;;;;;42.05;5.47;;;;;;;;;;4969259;28;20026;-81
2022/01/30 10:04:16;;;;;;;44.40;6.88;;;;;;;;;;4966354;28;20018;-81
2022/01/30 10:07:02;;;;;;;26.98;5.45;;;;;;;;;;4971780;28;20027;-81
2022/01/30 10:09:31;;;;;;;27.13;6.20;;;;;;;;;;5002285;28;20035;-81
2022/01/30 10:12:19;;;;;;;43.83;6.13;;;;;;;;;;4968256;28;20377;-81
2022/01/30 10:14:51;;;;;;;30.30;5.10;;;;;;;;;;4981887;28;20049;-81
2022/01/30 10:17:26;;;;;;;39.83;6.55;;;;;;;;;;4983224;28;20040;-80
2022/01/30 10:20:01;;;;;;;65.20;7.33;;;;;;;;;;5005904;28;20640;-81
2022/01/30 10:22:27;;;;;;;53.05;8.10;;;;;;;;;;5000730;28;20034;-81
2022/01/30 10:24:53;;;;;;;36.70;8.55;;;;;;;;;;4985298;28;20382;-81
2022/01/30 10:27:20;;;;;;;34.83;5.97;;;;;;;;;;4973053;28;20044;-81
2022/01/30 10:29:55;;;;;;;26.35;5.22;;;;;;;;;;4970625;28;20030;-81
2022/01/30 10:32:21;;;;;;;58.75;7.63;;;;;;;;;;4990014;28;20068;-81
2022/01/30 10:34:55;;;;;;;55.40;7.25;;;;;;;;;;4971427;28;20128;-81
2022/01/30 10:37:24;;;;;;;38.50;6.35;;;;;;;;;;4991829;28;20026;-81
2022/01/30 10:39:53;;;;;;;32.78;6.93;;;;;;;;;;4986169;28;20067;-81
2022/01/30 10:42:39;;;;;;;34.65;6.40;;;;;;;;;;4989801;28;20485;-81
2022/01/30 10:45:09;;;;;;;64.70;8.77;;;;;;;;;;4971558;28;20501;-82
2022/01/30 10:47:36;;;;;;;51.90;7.38;;;;;;;;;;4986574;28;20654;-81
2022/01/30 10:50:08;;;;;;;35.88;7.72;;;;;;;;;;4974203;28;20047;-82
2022/01/30 10:52:34;;;;;;;30.77;7.82;;;;;;;;;;4981383;28;20034;-81
2022/01/30 10:55:04;;;;;;;41.55;7.55;;;;;;;;;;4987118;28;20045;-82
2022/01/30 10:57:30;;;;;;;22.65;5.47;;;;;;;;;;4963155;28;20031;-81
2022/01/30 10:59:57;;;;;;;44.38;10.55;;;;;;;;;;4966990;28;20030;-81
2022/01/30 11:02:23;;;;;;;28.55;7.78;;;;;;;;;;4984837;28;20108;-81
2022/01/30 11:04:50;;;;;;;37.25;9.30;;;;;;;;;;4985851;28;20466;-82
2022/01/30 11:07:21;;;;;;;33.38;9.13;;;;;;;;;;4966687;28;20816;-82
2022/01/30 11:10:23;;;;;;;15.40;5.65;;;;;;;;;;5000934;28;20815;-82
2022/01/30 11:12:56;;;;;;;;;;;;;;;;;;4987041;28;20414;-82
2022/01/30 11:15:35;;;;;;;40.80;8.10;;;;;;;;;;4962817;28;19910;-82
2022/01/30 11:18:05;;;;;;;31.98;6.13;;;;;;;;;;4990024;28;20021;-81
2022/01/30 11:20:32;;;;;;;27.30;6.18;;;;;;;;;;4967779;28;20039;-81
2022/01/30 11:23:02;;;;;;;36.92;6.40;;;;;;;;;;4982431;28;20042;-82
2022/01/30 11:25:33;;;;;;;34.72;7.07;;;;;;;;;;4986831;28;20490;-82
2022/01/30 11:28:03;;;;;;;37.85;7.18;;;;;;;;;;4971153;28;20109;-81
2022/01/30 11:30:29;;;;;;;15.20;3.22;;;;;;;;;;4983948;28;20033;-81
2022/01/30 11:32:56;;;;;;;39.45;8.18;;;;;;;;;;4970875;28;20481;-81
2022/01/30 11:35:22;;;;;;;27.98;7.20;;;;;;;;;;4988027;28;20086;-81
2022/01/30 11:37:49;;;;;;;22.23;5.10;;;;;;;;;;4970248;28;20092;-81
2022/01/30 11:40:17;;;;;;;19.75;5.32;;;;;;;;;;4968076;28;20117;-81
2022/01/30 11:42:49;;;;;;;31.73;5.50;;;;;;;;;;4986653;28;20033;-81
2022/01/30 11:45:20;;;;;;;40.67;6.72;;;;;;;;;;4968122;28;20520;-80
2022/01/30 11:47:51;;;;;;;33.42;6.25;;;;;;;;;;4970303;28;20037;-81
2022/01/30 11:50:30;;;;;;;34.72;6.00;;;;;;;;;;4995610;28;20069;-81
2022/01/30 11:53:06;;;;;;;19.25;4.07;;;;;;;;;;4948444;28;20117;-83
2022/01/30 11:55:50;;;;;;;42.33;6.93;;;;;;;;;;4966000;28;20270;-82
2022/01/30 11:58:38;;;;;;;30.73;5.78;;;;;;;;;;4947142;28;20486;-81
2022/01/30 12:01:24;;;;;;;23.00;5.18;;;;;;;;;;4965652;28;20113;-82
2022/01/30 12:03:59;;;;;;;30.08;6.18;;;;;;;;;;4935480;28;20770;-82
2022/01/30 12:06:25;;;;;;;19.75;4.03;;;;;;;;;;4945330;28;20486;-82
2022/01/30 12:08:55;;;;;;;27.25;4.72;;;;;;;;;;4946867;28;21743;-83
2022/01/30 12:11:47;;;;;;;41.50;6.38;;;;;;;;;;4966418;28;20535;-82
2022/01/30 12:14:22;;;;;;;24.33;4.53;;;;;;;;;;4963080;28;20062;-83
2022/01/30 12:16:49;;;;;;;32.80;7.40;;;;;;;;;;4950396;28;20554;-82
2022/01/30 12:19:17;;;;;;;30.27;4.80;;;;;;;;;;4968071;28;20030;-81
2022/01/30 12:21:43;;;;;;;32.55;5.90;;;;;;;;;;4982384;28;22834;-82
2022/01/30 12:24:28;;;;;;;44.33;6.28;;;;;;;;;;4946633;28;20035;-82
2022/01/30 12:26:56;;;;;;;39.53;5.95;;;;;;;;;;4948240;28;20058;-82
2022/01/30 12:29:41;;;;;;;21.10;4.00;;;;;;;;;;4948233;28;20085;-82
2022/01/30 12:32:16;;;;;;;24.73;5.10;;;;;;;;;;4964517;28;20030;-82
2022/01/30 12:34:42;;;;;;;25.30;4.63;;;;;;;;;;4948220;28;20058;-83
2022/01/30 12:37:09;;;;;;;30.20;5.82;;;;;;;;;;4966286;28;20063;-82
2022/01/30 12:39:35;;;;;;;32.78;4.95;;;;;;;;;;4964000;28;20035;-83
2022/01/30 12:42:01;;;;;;;33.03;6.72;;;;;;;;;;4953474;28;20045;-83
2022/01/30 12:44:30;;;;;;;33.83;5.28;;;;;;;;;;4963254;28;20386;-82
2022/01/30 12:46:56;;;;;;;28.70;6.40;;;;;;;;;;4960705;28;20031;-82
2022/01/30 12:49:28;;;;;;;18.30;3.63;;;;;;;;;;4949201;28;20045;-82
2022/01/30 12:52:04;;;;;;;24.35;3.78;;;;;;;;;;4962964;28;20075;-83
2022/01/30 12:54:38;;;;;;;28.30;4.07;;;;;;;;;;4950543;28;20085;-81
2022/01/30 12:57:04;;;;;;;14.13;4.10;;;;;;;;;;4945328;28;20031;-81
2022/01/30 12:59:30;;;;;;;28.13;4.75;;;;;;;;;;4965764;28;20023;-83
2022/01/30 13:02:10;;;;;;;32.28;4.93;;;;;;;;;;4942502;28;20027;-82
2022/01/30 13:04:39;;;;;;;38.60;5.70;;;;;;;;;;4978622;28;20069;-83
2022/01/30 13:07:05;;;;;;;32.83;5.43;;;;;;;;;;4984835;28;20149;-82
2022/01/30 13:09:32;;;;;;;18.02;3.20;;;;;;;;;;4961523;28;20039;-83
2022/01/30 13:12:02;;;;;;;30.77;5.05;;;;;;;;;;4949018;28;20035;-81
2022/01/30 13:14:32;;;;;;;32.20;5.18;;;;;;;;;;4943622;28;20078;-82
2022/01/30 13:16:58;;;;;;;20.45;5.22;;;;;;;;;;4943787;28;20027;-82
2022/01/30 13:19:29;;;;;;;23.67;2.90;;;;;;;;;;4963447;28;20038;-83
2022/01/30 13:21:55;;;;;;;39.25;5.93;;;;;;;;;;4963970;28;20031;-82
2022/01/30 13:24:21;;;;;;;37.65;6.47;;;;;;;;;;4949577;28;20034;-82
2022/01/30 13:26:48;;;;;;;26.45;4.85;;;;;;;;;;4945728;28;20114;-82
2022/01/30 13:29:19;;;;;;;46.53;6.45;;;;;;;;;;4950645;28;20689;-82
2022/01/30 13:31:49;;;;;;;34.08;5.22;;;;;;;;;;4976089;28;20053;-82
2022/01/30 13:34:15;;;;;;;43.00;6.10;;;;;;;;;;4948203;28;20576;-82
2022/01/30 13:36:42;;;;;;;19.45;5.18;;;;;;;;;;4948556;28;20063;-82
2022/01/30 13:39:14;;;;;;;25.75;5.40;;;;;;;;;;4941431;28;20046;-83
2022/01/30 13:41:48;;;;;;;19.77;3.45;;;;;;;;;;4945686;28;20055;-83
2022/01/30 13:44:26;;;;;;;26.83;3.63;;;;;;;;;;4958818;28;20058;-83
2022/01/30 13:47:03;;;;;;;15.40;3.42;;;;;;;;;;4947499;28;20046;-82
2022/01/30 13:49:30;;;;;;;16.35;2.72;;;;;;;;;;4950862;28;20569;-82
2022/01/30 13:52:12;;;;;;;20.73;4.40;;;;;;;;;;4952996;28;20069;-82
2022/01/30 13:54:38;;;;;;;33.13;5.07;;;;;;;;;;4946136;28;20055;-83
2022/01/30 13:57:05;;;;;;;20.13;4.00;;;;;;;;;;4954005;28;20034;-83
2022/01/30 13:59:31;;;;;;;45.65;6.70;;;;;;;;;;4960813;28;20042;-83
2022/01/30 14:01:58;;;;;;;29.67;5.03;;;;;;;;;;4965733;28;20129;-82
2022/01/30 14:04:25;;;;;;;37.60;5.53;;;;;;;;;;4962179;28;20042;-83
2022/01/30 14:06:53;;;;;;;31.08;6.20;;;;;;;;;;4962470;28;20023;-82
2022/01/30 14:09:25;;;;;;;37.00;5.47;;;;;;;;;;4947725;28;20058;-83
2022/01/30 14:12:02;;;;;;;36.08;6.30;;;;;;;;;;4947615;28;20138;-82
2022/01/30 14:14:28;;;;;;;37.88;6.10;;;;;;;;;;4960672;28;20031;-82
2022/01/30 14:17:00;;;;;;;37.83;5.47;;;;;;;;;;4939537;28;20513;-82
2022/01/30 14:19:34;;;;;;;19.42;5.03;;;;;;;;;;4946747;28;20019;-83
2022/01/30 14:22:23;;;;;;;39.53;6.43;;;;;;;;;;4944693;28;20063;-82
2022/01/30 14:24:55;;;;;;;31.85;4.68;;;;;;;;;;4963948;28;20027;-83
2022/01/30 14:27:22;;;;;;;32.83;3.78;;;;;;;;;;4946715;28;20085;-82
2022/01/30 14:29:52;;;;;;;35.67;6.55;;;;;;;;;;4959597;28;20063;-83
2022/01/30 14:32:22;;;;;;;33.05;4.82;;;;;;;;;;4948944;28;20038;-82
2022/01/30 14:34:51;;;;;;;24.90;4.43;;;;;;;;;;4945495;28;20035;-83
2022/01/30 14:37:18;;;;;;;43.60;5.40;;;;;;;;;;4963172;28;20134;-83
2022/01/30 14:39:44;;;;;;;42.38;5.97;;;;;;;;;;4966980;28;20467;-82
2022/01/30 14:42:12;;;;;;;28.08;4.93;;;;;;;;;;4946926;28;20024;-82
2022/01/30 14:44:39;;;;;;;32.58;4.47;;;;;;;;;;4948340;28;20054;-83
2022/01/30 14:47:05;;;;;;;32.67;4.75;;;;;;;;;;4967162;28;20483;-83
2022/01/30 14:49:32;;;;;;;38.13;6.00;;;;;;;;;;4964685;28;20038;-83
2022/01/30 14:51:58;;;;;;;36.85;5.28;;;;;;;;;;4967929;28;20042;-82
2022/01/30 14:54:24;;;;;;;37.03;3.88;;;;;;;;;;4952789;28;20073;-82
2022/01/30 14:56:50;;;;;;;27.00;5.30;;;;;;;;;;4981046;28;20506;-82
2022/01/30 14:59:16;;;;;;;26.40;4.43;;;;;;;;;;4952327;28;20440;-82
2022/01/30 15:01:42;;;;;;;34.97;5.93;;;;;;;;;;4947585;28;20030;-82
2022/01/30 15:04:09;;;;;;;35.90;4.57;;;;;;;;;;4947152;28;20069;-82
2022/01/30 15:06:35;;;;;;;38.50;5.15;;;;;;;;;;4953230;28;20050;-83
2022/01/30 15:09:02;;;;;;;38.60;5.10;;;;;;;;;;4968833;28;20042;-83
2022/01/30 15:11:28;;;;;;;33.60;4.53;;;;;;;;;;4950770;28;20518;-82
2022/01/30 15:13:54;;;;;;;41.67;5.63;;;;;;;;;;4944957;28;20031;-82
2022/01/30 15:16:27;;;;;;;42.50;5.50;;;;;;;;;;4950991;28;20148;-82
2022/01/30 15:18:53;;;;;;;24.60;4.85;;;;;;;;;;4950222;28;20038;-82
2022/01/30 15:21:19;;;;;;;47.08;6.63;;;;;;;;;;4951068;28;20470;-82
2022/01/30 15:23:45;;;;;;;35.20;4.82;;;;;;;;;;4950267;28;20105;-82
2022/01/30 15:26:11;;;;;;;27.02;4.55;;;;;;;;;;4950440;28;20622;-82
2022/01/30 15:28:37;;;;;;;40.20;7.20;;;;;;;;;;4953625;28;20117;-82